Flight Track Log - Related Links

Times and Time Zones

All times are in EDT time to prevent confusion due to time zone crossing. See the TYR847 flight status page for this flight to view local times or setup timezone preferences in your user account.

Time Position Orientation Groundspeed Altitude Reporting Facility
EDT Latitude Longitude Course Direction KTS MPH feet Rate Location/Type
Mon 07:13:00 AM 47.3500 16.9690 160° South  Level Estimated
Mon 07:14:00 AM 47.2548 17.0181 161° South  Level Estimated
Mon 07:15:00 AM 47.1597 17.0670 161° South  Level Estimated
Mon 07:16:00 AM 47.0645 17.1157 161° South  Level Estimated
Mon 07:17:00 AM 46.9693 17.1643 161° South  Level Estimated
Mon 07:18:00 AM 46.8741 17.2127 161° South  Level Estimated
Mon 07:19:00 AM 46.7789 17.2609 161° South  Level Estimated
Mon 07:20:00 AM 46.6836 17.3090 161° South  Level Estimated
Mon 07:21:00 AM 46.5883 17.3569 161° South  Level Estimated
Mon 07:22:00 AM 46.4930 17.4046 161° South  Level Estimated
Mon 07:23:00 AM 46.3977 17.4522 161° South  Level Estimated
Mon 07:24:00 AM 46.3024 17.4995 161° South  Level Estimated
Mon 07:25:00 AM 46.2070 17.5468 161° South  Level Estimated
Mon 07:26:00 AM 46.1116 17.5938 161° South  Level Estimated
Mon 07:27:00 AM 46.0163 17.6407 161° South  Level Estimated
Mon 07:28:00 AM 45.9208 17.6875 161° South  Level Estimated
Mon 07:29:00 AM 45.8254 17.7340 161° South  Level Estimated
Mon 07:30:00 AM 45.7300 17.7804 161° South  Level Estimated
Mon 07:31:00 AM 45.6345 17.8267 161° South  Level Estimated
Mon 07:32:00 AM 45.5390 17.8728 161° South  Level Estimated
Mon 07:33:00 AM 45.4435 17.9187 161° South  Level Estimated
Mon 07:34:00 AM 45.3480 17.9645 161° South  Level Estimated
Mon 07:35:00 AM 45.2524 18.0102 161° South  Level Estimated
Mon 07:36:00 AM 45.1569 18.0556 161° South  Level Estimated
Mon 07:37:00 AM 45.0613 18.1010 161° South  Level Estimated
Mon 07:38:00 AM 44.9657 18.1461 162° South  Level Estimated
Mon 07:39:00 AM 44.8701 18.1912 162° South  Level Estimated
Mon 07:40:00 AM 44.7744 18.2360 162° South  Level Estimated
Mon 07:41:00 AM 44.6788 18.2808 162° South  Level Estimated
Mon 07:42:00 AM 44.5831 18.3253 162° South  Level Estimated
Mon 07:43:00 AM 44.4874 18.3698 162° South  Level Estimated
Mon 07:44:00 AM 44.3917 18.4141 162° South  Level Estimated
Mon 07:45:00 AM 44.2960 18.4582 162° South  Level Estimated
Mon 07:46:00 AM 44.2003 18.5022 162° South  Level Estimated
Mon 07:47:00 AM 44.1045 18.5461 162° South  Level Estimated
Mon 07:48:00 AM 44.0088 18.5898 162° South  Level Estimated
Mon 07:49:00 AM 43.9130 18.6334 162° South  Level Estimated
Mon 07:50:00 AM 43.8172 18.6768 162° South  Level Estimated
Mon 07:51:00 AM 43.7213 18.7201 162° South  Level Estimated
Mon 07:52:00 AM 43.6255 18.7632 162° South  Level Estimated
Mon 07:53:00 AM 43.5297 18.8062 162° South  Level Estimated
Mon 07:54:00 AM 43.4338 18.8491 162° South  Level Estimated
Mon 07:55:00 AM 43.3379 18.8919 162° South  Level Estimated
Mon 07:56:00 AM 43.2420 18.9345 162° South  Level Estimated
Mon 07:57:00 AM 43.1461 18.9770 162° South  Level Estimated
Mon 07:58:00 AM 43.0502 19.0193 162° South  Level Estimated
Mon 07:59:00 AM 42.9542 19.0615 162° South  Level Estimated
Mon 08:00:00 AM 42.8582 19.1036 162° South  Level Estimated
Mon 08:01:00 AM 42.7623 19.1456 162° South  Level Estimated
Mon 08:02:00 AM 42.6663 19.1874 162° South  Level Estimated
Mon 08:03:00 AM 42.5703 19.2291 162° South  Level Estimated
Mon 08:04:00 AM 42.4742 19.2706 162° South  Level Estimated
Mon 08:05:00 AM 42.3782 19.3121 162° South  Level Estimated
Mon 08:06:00 AM 42.2822 19.3534 162° South  Level Estimated
Mon 08:07:00 AM 42.1861 19.3946 162° South  Level Estimated
Mon 08:08:00 AM 42.0900 19.4356 162° South  Level Estimated
Mon 08:09:00 AM 41.9939 19.4766 162° South  Level Estimated
Mon 08:10:00 AM 41.8978 19.5174 162° South  Level Estimated
Mon 08:11:00 AM 41.8017 19.5581 162° South  Level Estimated
Mon 08:12:00 AM 41.7055 19.5986 163° South  Level Estimated
Mon 08:13:00 AM 41.6094 19.6391 163° South  Level Estimated
Mon 08:14:00 AM 41.5132 19.6794 163° South  Level Estimated
Mon 08:15:00 AM 41.4170 19.7196 163° South  Level Estimated
Mon 08:16:00 AM 41.4147 19.7206 163° South  Level Estimated
Mon 08:17:00 AM 41.4147 19.7206 21° North  Level Estimated
Mon 08:18:00 AM 41.4147 19.7206 21° North  Level Estimated
Mon 08:19:00 AM 41.4147 19.7206 21° North  Level Estimated
Mon 08:20:00 AM 41.4147 19.7206 21° North  Level Estimated
Mon 08:21:00 AM 41.4147 19.7206 21° North  Level Estimated
Mon 08:22:00 AM 41.4147 19.7206 21° North  Level Estimated
Mon 08:23:00 AM 41.4147 19.7206 21° North  Level Estimated

Login

Don't have an account? Register now (free) for customized features, flight alerts, and more!